sensor_id;sensor_type;location;lat;lon;timestamp;P1;durP1;ratioP1;P2;durP2;ratioP2
81896;SDS011;71360;43.506;1.500;2024-02-26T00:00:27;8.30;;;2.30;;
81896;SDS011;71360;43.506;1.500;2024-02-26T00:02:53;12.75;;;2.65;;
81896;SDS011;71360;43.506;1.500;2024-02-26T00:05:19;9.57;;;2.30;;
81896;SDS011;71360;43.506;1.500;2024-02-26T00:07:45;7.97;;;2.50;;
81896;SDS011;71360;43.506;1.500;2024-02-26T00:10:10;11.90;;;2.60;;
81896;SDS011;71360;43.506;1.500;2024-02-26T00:12:35;13.20;;;2.67;;
81896;SDS011;71360;43.506;1.500;2024-02-26T00:15:01;10.40;;;2.43;;
81896;SDS011;71360;43.506;1.500;2024-02-26T00:17:26;12.75;;;2.50;;
81896;SDS011;71360;43.506;1.500;2024-02-26T00:19:52;11.57;;;2.70;;
81896;SDS011;71360;43.506;1.500;2024-02-26T00:22:18;9.60;;;2.47;;
81896;SDS011;71360;43.506;1.500;2024-02-26T00:24:43;12.60;;;2.73;;
81896;SDS011;71360;43.506;1.500;2024-02-26T00:27:09;8.80;;;2.67;;
81896;SDS011;71360;43.506;1.500;2024-02-26T00:29:34;9.07;;;2.90;;
81896;SDS011;71360;43.506;1.500;2024-02-26T00:32:00;11.65;;;2.67;;
81896;SDS011;71360;43.506;1.500;2024-02-26T00:34:25;9.13;;;2.70;;
81896;SDS011;71360;43.506;1.500;2024-02-26T00:36:50;9.17;;;2.87;;
81896;SDS011;71360;43.506;1.500;2024-02-26T00:39:16;11.70;;;2.60;;
81896;SDS011;71360;43.506;1.500;2024-02-26T00:41:41;8.35;;;2.70;;
81896;SDS011;71360;43.506;1.500;2024-02-26T00:44:07;8.33;;;3.07;;
81896;SDS011;71360;43.506;1.500;2024-02-26T00:46:32;11.43;;;3.10;;
81896;SDS011;71360;43.506;1.500;2024-02-26T00:48:58;10.43;;;2.92;;
81896;SDS011;71360;43.506;1.500;2024-02-26T00:51:23;10.67;;;3.27;;
81896;SDS011;71360;43.506;1.500;2024-02-26T00:53:49;8.03;;;2.80;;
81896;SDS011;71360;43.506;1.500;2024-02-26T00:56:14;9.47;;;2.97;;
81896;SDS011;71360;43.506;1.500;2024-02-26T00:58:40;11.18;;;3.13;;
81896;SDS011;71360;43.506;1.500;2024-02-26T01:01:05;12.10;;;3.30;;
81896;SDS011;71360;43.506;1.500;2024-02-26T01:03:30;10.80;;;3.30;;
81896;SDS011;71360;43.506;1.500;2024-02-26T01:05:56;13.40;;;3.60;;
81896;SDS011;71360;43.506;1.500;2024-02-26T01:08:21;14.03;;;3.70;;
81896;SDS011;71360;43.506;1.500;2024-02-26T01:10:47;13.25;;;3.63;;
81896;SDS011;71360;43.506;1.500;2024-02-26T01:13:12;12.10;;;3.60;;
81896;SDS011;71360;43.506;1.500;2024-02-26T01:15:38;12.83;;;2.73;;
81896;SDS011;71360;43.506;1.500;2024-02-26T01:18:03;14.07;;;2.72;;
81896;SDS011;71360;43.506;1.500;2024-02-26T01:20:29;12.87;;;2.80;;
81896;SDS011;71360;43.506;1.500;2024-02-26T01:22:54;13.33;;;2.70;;
81896;SDS011;71360;43.506;1.500;2024-02-26T01:25:20;17.45;;;2.83;;
81896;SDS011;71360;43.506;1.500;2024-02-26T01:27:45;14.67;;;2.70;;
81896;SDS011;71360;43.506;1.500;2024-02-26T01:30:11;11.43;;;2.60;;
81896;SDS011;71360;43.506;1.500;2024-02-26T01:32:36;12.00;;;2.28;;
81896;SDS011;71360;43.506;1.500;2024-02-26T01:35:02;14.40;;;2.40;;
81896;SDS011;71360;43.506;1.500;2024-02-26T01:37:35;12.30;;;2.08;;
81896;SDS011;71360;43.506;1.500;2024-02-26T01:40:00;12.53;;;2.40;;
81896;SDS011;71360;43.506;1.500;2024-02-26T01:42:29;15.50;;;2.30;;
81896;SDS011;71360;43.506;1.500;2024-02-26T01:44:55;12.55;;;2.30;;
81896;SDS011;71360;43.506;1.500;2024-02-26T01:47:21;17.43;;;2.07;;
81896;SDS011;71360;43.506;1.500;2024-02-26T01:49:47;18.08;;;2.40;;
81896;SDS011;71360;43.506;1.500;2024-02-26T01:52:13;14.20;;;2.20;;
81896;SDS011;71360;43.506;1.500;2024-02-26T01:54:39;14.30;;;2.15;;
81896;SDS011;71360;43.506;1.500;2024-02-26T01:57:06;13.43;;;2.15;;
81896;SDS011;71360;43.506;1.500;2024-02-26T01:59:33;14.17;;;2.20;;
81896;SDS011;71360;43.506;1.500;2024-02-26T02:02:01;13.45;;;2.10;;
81896;SDS011;71360;43.506;1.500;2024-02-26T02:04:28;17.27;;;2.47;;
81896;SDS011;71360;43.506;1.500;2024-02-26T02:06:54;14.23;;;1.90;;
81896;SDS011;71360;43.506;1.500;2024-02-26T02:09:22;12.63;;;2.08;;
81896;SDS011;71360;43.506;1.500;2024-02-26T02:11:48;14.60;;;2.00;;
81896;SDS011;71360;43.506;1.500;2024-02-26T02:14:14;11.85;;;1.88;;
81896;SDS011;71360;43.506;1.500;2024-02-26T02:16:39;17.02;;;2.47;;
81896;SDS011;71360;43.506;1.500;2024-02-26T02:19:05;13.73;;;2.00;;
81896;SDS011;71360;43.506;1.500;2024-02-26T02:21:30;14.20;;;2.33;;
81896;SDS011;71360;43.506;1.500;2024-02-26T02:23:56;15.13;;;2.10;;
81896;SDS011;71360;43.506;1.500;2024-02-26T02:26:21;16.50;;;2.13;;
81896;SDS011;71360;43.506;1.500;2024-02-26T02:28:47;12.80;;;2.10;;
81896;SDS011;71360;43.506;1.500;2024-02-26T02:31:14;11.15;;;2.05;;
81896;SDS011;71360;43.506;1.500;2024-02-26T02:33:40;16.08;;;2.05;;
81896;SDS011;71360;43.506;1.500;2024-02-26T02:36:06;13.35;;;2.00;;
81896;SDS011;71360;43.506;1.500;2024-02-26T02:38:35;15.67;;;2.30;;
81896;SDS011;71360;43.506;1.500;2024-02-26T02:41:03;13.65;;;2.00;;
81896;SDS011;71360;43.506;1.500;2024-02-26T02:43:29;15.73;;;2.25;;
81896;SDS011;71360;43.506;1.500;2024-02-26T02:45:54;13.50;;;1.90;;
81896;SDS011;71360;43.506;1.500;2024-02-26T02:48:19;18.47;;;2.23;;
81896;SDS011;71360;43.506;1.500;2024-02-26T02:50:45;11.18;;;1.85;;
81896;SDS011;71360;43.506;1.500;2024-02-26T02:53:11;13.97;;;1.70;;
81896;SDS011;71360;43.506;1.500;2024-02-26T02:55:36;13.07;;;2.07;;
81896;SDS011;71360;43.506;1.500;2024-02-26T02:58:01;12.07;;;1.98;;
81896;SDS011;71360;43.506;1.500;2024-02-26T03:00:27;12.60;;;1.87;;
81896;SDS011;71360;43.506;1.500;2024-02-26T03:02:52;12.10;;;2.10;;
81896;SDS011;71360;43.506;1.500;2024-02-26T03:05:18;12.80;;;1.97;;
81896;SDS011;71360;43.506;1.500;2024-02-26T03:07:43;10.13;;;1.73;;
81896;SDS011;71360;43.506;1.500;2024-02-26T03:10:09;16.53;;;2.03;;
81896;SDS011;71360;43.506;1.500;2024-02-26T03:12:34;16.93;;;2.00;;
81896;SDS011;71360;43.506;1.500;2024-02-26T03:15:00;12.50;;;2.30;;
81896;SDS011;71360;43.506;1.500;2024-02-26T03:17:29;8.95;;;1.88;;
81896;SDS011;71360;43.506;1.500;2024-02-26T03:19:55;12.07;;;2.05;;
81896;SDS011;71360;43.506;1.500;2024-02-26T03:22:20;9.77;;;2.03;;
81896;SDS011;71360;43.506;1.500;2024-02-26T03:24:46;10.30;;;1.87;;
81896;SDS011;71360;43.506;1.500;2024-02-26T03:27:12;9.65;;;1.98;;
81896;SDS011;71360;43.506;1.500;2024-02-26T03:29:37;11.25;;;2.05;;
81896;SDS011;71360;43.506;1.500;2024-02-26T03:32:03;10.13;;;2.00;;
81896;SDS011;71360;43.506;1.500;2024-02-26T03:34:32;9.80;;;1.75;;
81896;SDS011;71360;43.506;1.500;2024-02-26T03:37:01;9.95;;;1.60;;
81896;SDS011;71360;43.506;1.500;2024-02-26T03:39:26;9.63;;;1.50;;
81896;SDS011;71360;43.506;1.500;2024-02-26T03:41:52;9.03;;;1.73;;
81896;SDS011;71360;43.506;1.500;2024-02-26T03:44:17;10.90;;;2.00;;
81896;SDS011;71360;43.506;1.500;2024-02-26T03:46:43;7.22;;;1.40;;
81896;SDS011;71360;43.506;1.500;2024-02-26T03:49:09;10.27;;;1.77;;
81896;SDS011;71360;43.506;1.500;2024-02-26T03:51:35;9.13;;;1.67;;
81896;SDS011;71360;43.506;1.500;2024-02-26T03:54:00;8.43;;;1.40;;
81896;SDS011;71360;43.506;1.500;2024-02-26T03:56:26;8.48;;;1.30;;
81896;SDS011;71360;43.506;1.500;2024-02-26T03:58:52;9.57;;;1.45;;
81896;SDS011;71360;43.506;1.500;2024-02-26T04:01:19;9.40;;;1.63;;
81896;SDS011;71360;43.506;1.500;2024-02-26T04:03:44;9.03;;;1.50;;
81896;SDS011;71360;43.506;1.500;2024-02-26T04:06:10;8.27;;;1.67;;
81896;SDS011;71360;43.506;1.500;2024-02-26T04:08:39;6.90;;;1.40;;
81896;SDS011;71360;43.506;1.500;2024-02-26T04:11:04;7.25;;;1.52;;
81896;SDS011;71360;43.506;1.500;2024-02-26T04:13:32;9.05;;;1.52;;
81896;SDS011;71360;43.506;1.500;2024-02-26T04:15:58;8.93;;;1.50;;
81896;SDS011;71360;43.506;1.500;2024-02-26T04:18:26;7.70;;;1.40;;
81896;SDS011;71360;43.506;1.500;2024-02-26T04:20:52;8.88;;;1.80;;
81896;SDS011;71360;43.506;1.500;2024-02-26T04:23:17;9.23;;;2.00;;
81896;SDS011;71360;43.506;1.500;2024-02-26T04:25:43;7.83;;;1.87;;
81896;SDS011;71360;43.506;1.500;2024-02-26T04:28:08;7.25;;;1.55;;
81896;SDS011;71360;43.506;1.500;2024-02-26T04:30:33;7.73;;;1.40;;
81896;SDS011;71360;43.506;1.500;2024-02-26T04:32:59;7.93;;;1.43;;
81896;SDS011;71360;43.506;1.500;2024-02-26T04:35:24;8.60;;;1.43;;
81896;SDS011;71360;43.506;1.500;2024-02-26T04:37:50;7.05;;;1.10;;
81896;SDS011;71360;43.506;1.500;2024-02-26T04:40:15;7.83;;;1.20;;
81896;SDS011;71360;43.506;1.500;2024-02-26T04:42:40;6.00;;;1.07;;
81896;SDS011;71360;43.506;1.500;2024-02-26T04:45:06;7.07;;;1.40;;
81896;SDS011;71360;43.506;1.500;2024-02-26T04:47:33;7.32;;;1.38;;
81896;SDS011;71360;43.506;1.500;2024-02-26T04:49:59;6.53;;;1.30;;
81896;SDS011;71360;43.506;1.500;2024-02-26T04:52:25;8.18;;;1.38;;
81896;SDS011;71360;43.506;1.500;2024-02-26T04:54:50;6.67;;;1.00;;
81896;SDS011;71360;43.506;1.500;2024-02-26T04:57:16;7.78;;;1.40;;
81896;SDS011;71360;43.506;1.500;2024-02-26T04:59:43;8.40;;;1.45;;
81896;SDS011;71360;43.506;1.500;2024-02-26T05:02:10;7.40;;;1.27;;
81896;SDS011;71360;43.506;1.500;2024-02-26T05:04:35;5.07;;;1.10;;
81896;SDS011;71360;43.506;1.500;2024-02-26T05:07:00;8.17;;;1.40;;
81896;SDS011;71360;43.506;1.500;2024-02-26T05:09:26;6.83;;;1.20;;
81896;SDS011;71360;43.506;1.500;2024-02-26T05:11:51;8.27;;;1.17;;
81896;SDS011;71360;43.506;1.500;2024-02-26T05:14:17;8.52;;;1.30;;
81896;SDS011;71360;43.506;1.500;2024-02-26T05:16:43;5.00;;;1.03;;
81896;SDS011;71360;43.506;1.500;2024-02-26T05:19:08;7.40;;;1.20;;
81896;SDS011;71360;43.506;1.500;2024-02-26T05:21:33;6.40;;;1.23;;
81896;SDS011;71360;43.506;1.500;2024-02-26T05:23:59;6.47;;;1.20;;
81896;SDS011;71360;43.506;1.500;2024-02-26T05:26:25;6.43;;;1.13;;
81896;SDS011;71360;43.506;1.500;2024-02-26T05:28:50;5.67;;;1.20;;
81896;SDS011;71360;43.506;1.500;2024-02-26T05:31:16;5.03;;;1.30;;
81896;SDS011;71360;43.506;1.500;2024-02-26T05:33:43;8.27;;;1.23;;
81896;SDS011;71360;43.506;1.500;2024-02-26T05:36:08;5.80;;;0.93;;
81896;SDS011;71360;43.506;1.500;2024-02-26T05:38:34;7.43;;;1.30;;
81896;SDS011;71360;43.506;1.500;2024-02-26T05:40:59;5.83;;;1.03;;
81896;SDS011;71360;43.506;1.500;2024-02-26T05:43:27;6.63;;;1.30;;
81896;SDS011;71360;43.506;1.500;2024-02-26T05:45:53;6.03;;;1.00;;
81896;SDS011;71360;43.506;1.500;2024-02-26T05:48:19;7.88;;;1.40;;
81896;SDS011;71360;43.506;1.500;2024-02-26T05:50:45;7.10;;;1.10;;
81896;SDS011;71360;43.506;1.500;2024-02-26T05:53:11;6.15;;;1.20;;
81896;SDS011;71360;43.506;1.500;2024-02-26T05:55:36;6.67;;;1.20;;
81896;SDS011;71360;43.506;1.500;2024-02-26T05:58:02;7.23;;;1.07;;
81896;SDS011;71360;43.506;1.500;2024-02-26T06:00:28;5.60;;;1.25;;
81896;SDS011;71360;43.506;1.500;2024-02-26T06:02:53;4.37;;;1.00;;
81896;SDS011;71360;43.506;1.500;2024-02-26T06:05:18;6.13;;;1.00;;
81896;SDS011;71360;43.506;1.500;2024-02-26T06:07:44;6.13;;;1.17;;
81896;SDS011;71360;43.506;1.500;2024-02-26T06:10:09;4.57;;;0.93;;
81896;SDS011;71360;43.506;1.500;2024-02-26T06:12:35;7.67;;;1.27;;
81896;SDS011;71360;43.506;1.500;2024-02-26T06:15:01;5.85;;;0.90;;
81896;SDS011;71360;43.506;1.500;2024-02-26T06:17:26;5.03;;;1.20;;
81896;SDS011;71360;43.506;1.500;2024-02-26T06:19:53;6.10;;;1.10;;
81896;SDS011;71360;43.506;1.500;2024-02-26T06:22:18;5.57;;;1.00;;
81896;SDS011;71360;43.506;1.500;2024-02-26T06:24:43;4.10;;;1.00;;
81896;SDS011;71360;43.506;1.500;2024-02-26T06:27:09;5.72;;;1.10;;
81896;SDS011;71360;43.506;1.500;2024-02-26T06:29:34;3.50;;;0.87;;
81896;SDS011;71360;43.506;1.500;2024-02-26T06:32:00;4.97;;;1.13;;
81896;SDS011;71360;43.506;1.500;2024-02-26T06:34:25;4.20;;;1.00;;
81896;SDS011;71360;43.506;1.500;2024-02-26T06:36:50;5.53;;;1.00;;
81896;SDS011;71360;43.506;1.500;2024-02-26T06:39:16;5.93;;;1.10;;
81896;SDS011;71360;43.506;1.500;2024-02-26T06:41:42;5.87;;;0.97;;
81896;SDS011;71360;43.506;1.500;2024-02-26T06:44:08;5.50;;;0.80;;
81896;SDS011;71360;43.506;1.500;2024-02-26T06:46:34;6.28;;;1.17;;
81896;SDS011;71360;43.506;1.500;2024-02-26T06:48:59;6.20;;;1.20;;
81896;SDS011;71360;43.506;1.500;2024-02-26T06:51:25;3.33;;;0.83;;
81896;SDS011;71360;43.506;1.500;2024-02-26T06:53:50;5.50;;;0.90;;
81896;SDS011;71360;43.506;1.500;2024-02-26T06:56:16;6.78;;;1.00;;
81896;SDS011;71360;43.506;1.500;2024-02-26T06:58:41;4.73;;;0.90;;
81896;SDS011;71360;43.506;1.500;2024-02-26T07:01:07;3.53;;;0.97;;
81896;SDS011;71360;43.506;1.500;2024-02-26T07:03:33;4.05;;;0.98;;
81896;SDS011;71360;43.506;1.500;2024-02-26T07:05:59;5.07;;;1.10;;
81896;SDS011;71360;43.506;1.500;2024-02-26T07:08:24;4.33;;;0.80;;
81896;SDS011;71360;43.506;1.500;2024-02-26T07:10:50;4.50;;;1.00;;
81896;SDS011;71360;43.506;1.500;2024-02-26T07:13:15;5.63;;;0.90;;
81896;SDS011;71360;43.506;1.500;2024-02-26T07:15:40;3.75;;;0.88;;
81896;SDS011;71360;43.506;1.500;2024-02-26T07:18:06;3.40;;;0.80;;
81896;SDS011;71360;43.506;1.500;2024-02-26T07:20:32;6.30;;;1.30;;
81896;SDS011;71360;43.506;1.500;2024-02-26T07:22:57;4.30;;;0.90;;
81896;SDS011;71360;43.506;1.500;2024-02-26T07:25:23;5.20;;;1.00;;
81896;SDS011;71360;43.506;1.500;2024-02-26T07:27:49;5.53;;;0.93;;
81896;SDS011;71360;43.506;1.500;2024-02-26T07:30:15;7.03;;;1.10;;
81896;SDS011;71360;43.506;1.500;2024-02-26T07:32:42;3.93;;;0.87;;
81896;SDS011;71360;43.506;1.500;2024-02-26T07:35:07;7.10;;;1.27;;
81896;SDS011;71360;43.506;1.500;2024-02-26T07:37:33;5.82;;;1.00;;
81896;SDS011;71360;43.506;1.500;2024-02-26T07:39:59;4.28;;;1.10;;
81896;SDS011;71360;43.506;1.500;2024-02-26T07:42:25;6.80;;;1.00;;
81896;SDS011;71360;43.506;1.500;2024-02-26T07:44:50;5.17;;;1.00;;
81896;SDS011;71360;43.506;1.500;2024-02-26T07:47:16;5.38;;;1.13;;
81896;SDS011;71360;43.506;1.500;2024-02-26T07:49:41;5.47;;;1.07;;
81896;SDS011;71360;43.506;1.500;2024-02-26T07:52:07;5.20;;;0.90;;
81896;SDS011;71360;43.506;1.500;2024-02-26T07:54:32;4.90;;;0.90;;
81896;SDS011;71360;43.506;1.500;2024-02-26T07:56:57;5.13;;;0.90;;
81896;SDS011;71360;43.506;1.500;2024-02-26T07:59:23;5.17;;;1.10;;
81896;SDS011;71360;43.506;1.500;2024-02-26T08:01:52;4.38;;;0.90;;
81896;SDS011;71360;43.506;1.500;2024-02-26T08:04:17;4.30;;;1.00;;
81896;SDS011;71360;43.506;1.500;2024-02-26T08:06:43;6.32;;;0.93;;
81896;SDS011;71360;43.506;1.500;2024-02-26T08:09:08;4.87;;;1.00;;
81896;SDS011;71360;43.506;1.500;2024-02-26T08:11:34;4.30;;;1.07;;
81896;SDS011;71360;43.506;1.500;2024-02-26T08:14:00;6.68;;;1.48;;
81896;SDS011;71360;43.506;1.500;2024-02-26T08:16:25;5.20;;;1.20;;
81896;SDS011;71360;43.506;1.500;2024-02-26T08:18:51;5.43;;;1.10;;
81896;SDS011;71360;43.506;1.500;2024-02-26T08:21:16;6.33;;;1.30;;
81896;SDS011;71360;43.506;1.500;2024-02-26T08:23:43;6.03;;;1.03;;
81896;SDS011;71360;43.506;1.500;2024-02-26T08:26:08;5.93;;;1.23;;
81896;SDS011;71360;43.506;1.500;2024-02-26T08:28:36;6.47;;;1.30;;
81896;SDS011;71360;43.506;1.500;2024-02-26T08:31:03;6.55;;;1.02;;
81896;SDS011;71360;43.506;1.500;2024-02-26T08:33:29;8.20;;;1.40;;
81896;SDS011;71360;43.506;1.500;2024-02-26T08:35:54;6.95;;;1.20;;
81896;SDS011;71360;43.506;1.500;2024-02-26T08:38:20;8.47;;;1.60;;
81896;SDS011;71360;43.506;1.500;2024-02-26T08:40:45;9.95;;;1.10;;
81896;SDS011;71360;43.506;1.500;2024-02-26T08:43:11;5.60;;;1.20;;
81896;SDS011;71360;43.506;1.500;2024-02-26T08:45:36;8.43;;;1.40;;
81896;SDS011;71360;43.506;1.500;2024-02-26T08:48:02;6.63;;;1.10;;
81896;SDS011;71360;43.506;1.500;2024-02-26T08:50:28;6.13;;;1.30;;
81896;SDS011;71360;43.506;1.500;2024-02-26T08:52:53;6.93;;;1.30;;
81896;SDS011;71360;43.506;1.500;2024-02-26T08:55:18;6.47;;;1.20;;
81896;SDS011;71360;43.506;1.500;2024-02-26T08:57:44;4.63;;;1.00;;
81896;SDS011;71360;43.506;1.500;2024-02-26T09:00:10;7.10;;;1.10;;
81896;SDS011;71360;43.506;1.500;2024-02-26T09:02:36;7.25;;;1.25;;
81896;SDS011;71360;43.506;1.500;2024-02-26T09:05:04;6.88;;;1.48;;
81896;SDS011;71360;43.506;1.500;2024-02-26T09:07:30;5.88;;;1.10;;
81896;SDS011;71360;43.506;1.500;2024-02-26T09:09:56;8.20;;;1.30;;
81896;SDS011;71360;43.506;1.500;2024-02-26T09:12:22;8.23;;;1.48;;
81896;SDS011;71360;43.506;1.500;2024-02-26T09:14:47;7.67;;;1.03;;
81896;SDS011;71360;43.506;1.500;2024-02-26T09:17:13;6.22;;;1.00;;
81896;SDS011;71360;43.506;1.500;2024-02-26T09:19:38;5.97;;;1.20;;
81896;SDS011;71360;43.506;1.500;2024-02-26T09:22:04;8.00;;;1.30;;
81896;SDS011;71360;43.506;1.500;2024-02-26T09:24:29;5.80;;;1.20;;
81896;SDS011;71360;43.506;1.500;2024-02-26T09:26:55;5.07;;;0.90;;
81896;SDS011;71360;43.506;1.500;2024-02-26T09:29:20;4.47;;;1.03;;
81896;SDS011;71360;43.506;1.500;2024-02-26T09:31:46;6.97;;;1.20;;
81896;SDS011;71360;43.506;1.500;2024-02-26T09:34:14;6.65;;;1.25;;
81896;SDS011;71360;43.506;1.500;2024-02-26T09:36:40;7.57;;;1.20;;
81896;SDS011;71360;43.506;1.500;2024-02-26T09:39:05;7.05;;;1.23;;
81896;SDS011;71360;43.506;1.500;2024-02-26T09:41:34;5.95;;;1.00;;
81896;SDS011;71360;43.506;1.500;2024-02-26T09:44:00;6.97;;;1.37;;
81896;SDS011;71360;43.506;1.500;2024-02-26T09:46:28;6.15;;;1.20;;
81896;SDS011;71360;43.506;1.500;2024-02-26T09:48:53;5.65;;;1.17;;
81896;SDS011;71360;43.506;1.500;2024-02-26T09:51:20;6.18;;;1.05;;
81896;SDS011;71360;43.506;1.500;2024-02-26T09:53:49;5.47;;;1.10;;
81896;SDS011;71360;43.506;1.500;2024-02-26T09:56:17;6.03;;;1.10;;
81896;SDS011;71360;43.506;1.500;2024-02-26T09:58:43;6.95;;;1.13;;
81896;SDS011;71360;43.506;1.500;2024-02-26T10:01:11;8.20;;;1.10;;
81896;SDS011;71360;43.506;1.500;2024-02-26T10:03:40;4.78;;;1.02;;
81896;SDS011;71360;43.506;1.500;2024-02-26T10:06:15;5.03;;;0.95;;
81896;SDS011;71360;43.506;1.500;2024-02-26T10:08:41;5.53;;;1.00;;
81896;SDS011;71360;43.506;1.500;2024-02-26T10:11:08;4.20;;;0.90;;
81896;SDS011;71360;43.506;1.500;2024-02-26T10:13:35;6.75;;;1.10;;
81896;SDS011;71360;43.506;1.500;2024-02-26T10:16:01;6.22;;;1.15;;
81896;SDS011;71360;43.506;1.500;2024-02-26T10:18:44;7.03;;;1.00;;
81896;SDS011;71360;43.506;1.500;2024-02-26T10:21:10;5.47;;;1.10;;
81896;SDS011;71360;43.506;1.500;2024-02-26T10:23:36;4.60;;;0.98;;
81896;SDS011;71360;43.506;1.500;2024-02-26T10:26:01;5.13;;;0.70;;
81896;SDS011;71360;43.506;1.500;2024-02-26T10:28:27;4.63;;;0.87;;
81896;SDS011;71360;43.506;1.500;2024-02-26T10:30:54;5.53;;;1.00;;
81896;SDS011;71360;43.506;1.500;2024-02-26T10:33:20;4.47;;;0.80;;
81896;SDS011;71360;43.506;1.500;2024-02-26T10:35:46;4.72;;;1.10;;
81896;SDS011;71360;43.506;1.500;2024-02-26T10:38:12;3.97;;;0.88;;
81896;SDS011;71360;43.506;1.500;2024-02-26T10:40:38;5.73;;;1.20;;
81896;SDS011;71360;43.506;1.500;2024-02-26T10:43:03;4.30;;;1.00;;
81896;SDS011;71360;43.506;1.500;2024-02-26T10:45:29;5.72;;;1.00;;
81896;SDS011;71360;43.506;1.500;2024-02-26T10:47:54;4.50;;;1.17;;
81896;SDS011;71360;43.506;1.500;2024-02-26T10:50:20;5.43;;;1.20;;
81896;SDS011;71360;43.506;1.500;2024-02-26T10:52:45;5.90;;;1.00;;
81896;SDS011;71360;43.506;1.500;2024-02-26T10:55:14;5.40;;;1.00;;
81896;SDS011;71360;43.506;1.500;2024-02-26T10:57:43;4.22;;;0.90;;
81896;SDS011;71360;43.506;1.500;2024-02-26T11:03:22;3.87;;;0.80;;
81896;SDS011;71360;43.506;1.500;2024-02-26T11:06:01;6.43;;;0.90;;
81896;SDS011;71360;43.506;1.500;2024-02-26T11:08:31;4.90;;;0.80;;
81896;SDS011;71360;43.506;1.500;2024-02-26T11:10:57;5.53;;;1.00;;
81896;SDS011;71360;43.506;1.500;2024-02-26T11:13:23;4.93;;;0.83;;
81896;SDS011;71360;43.506;1.500;2024-02-26T11:15:55;4.65;;;0.80;;
81896;SDS011;71360;43.506;1.500;2024-02-26T11:18:22;6.07;;;0.90;;
81896;SDS011;71360;43.506;1.500;2024-02-26T11:20:49;4.05;;;0.80;;
81896;SDS011;71360;43.506;1.500;2024-02-26T11:23:16;3.97;;;0.90;;
81896;SDS011;71360;43.506;1.500;2024-02-26T11:25:41;4.65;;;0.80;;
81896;SDS011;71360;43.506;1.500;2024-02-26T11:28:09;3.83;;;0.90;;
81896;SDS011;71360;43.506;1.500;2024-02-26T11:30:38;5.00;;;0.90;;
81896;SDS011;71360;43.506;1.500;2024-02-26T11:36:13;4.82;;;0.80;;
81896;SDS011;71360;43.506;1.500;2024-02-26T11:38:39;4.13;;;0.80;;
81896;SDS011;71360;43.506;1.500;2024-02-26T11:41:05;4.18;;;1.00;;
81896;SDS011;71360;43.506;1.500;2024-02-26T11:43:51;4.53;;;0.98;;
81896;SDS011;71360;43.506;1.500;2024-02-26T11:46:25;3.35;;;0.70;;
81896;SDS011;71360;43.506;1.500;2024-02-26T11:48:51;4.57;;;0.73;;
81896;SDS011;71360;43.506;1.500;2024-02-26T11:51:24;3.47;;;0.70;;
81896;SDS011;71360;43.506;1.500;2024-02-26T11:53:51;4.32;;;0.93;;
81896;SDS011;71360;43.506;1.500;2024-02-26T11:58:46;3.30;;;0.90;;
81896;SDS011;71360;43.506;1.500;2024-02-26T12:01:35;3.43;;;0.80;;
81896;SDS011;71360;43.506;1.500;2024-02-26T12:04:07;4.70;;;0.80;;
81896;SDS011;71360;43.506;1.500;2024-02-26T12:06:40;4.07;;;0.77;;
81896;SDS011;71360;43.506;1.500;2024-02-26T12:09:10;4.85;;;0.80;;
81896;SDS011;71360;43.506;1.500;2024-02-26T12:11:39;4.47;;;0.70;;
81896;SDS011;71360;43.506;1.500;2024-02-26T12:14:07;4.80;;;0.90;;
81896;SDS011;71360;43.506;1.500;2024-02-26T12:16:40;3.72;;;0.75;;
81896;SDS011;71360;43.506;1.500;2024-02-26T12:19:08;4.22;;;0.90;;
81896;SDS011;71360;43.506;1.500;2024-02-26T12:21:37;4.50;;;0.90;;
81896;SDS011;71360;43.506;1.500;2024-02-26T12:24:13;4.00;;;0.70;;
81896;SDS011;71360;43.506;1.500;2024-02-26T12:26:41;4.10;;;0.70;;
81896;SDS011;71360;43.506;1.500;2024-02-26T12:32:01;2.72;;;0.70;;
81896;SDS011;71360;43.506;1.500;2024-02-26T12:34:28;3.57;;;0.67;;
81896;SDS011;71360;43.506;1.500;2024-02-26T12:36:53;5.30;;;0.70;;
81896;SDS011;71360;43.506;1.500;2024-02-26T12:39:20;5.00;;;0.73;;
81896;SDS011;71360;43.506;1.500;2024-02-26T12:41:46;4.30;;;0.90;;
81896;SDS011;71360;43.506;1.500;2024-02-26T12:44:26;3.95;;;0.70;;
81896;SDS011;71360;43.506;1.500;2024-02-26T12:46:59;3.28;;;0.60;;
81896;SDS011;71360;43.506;1.500;2024-02-26T12:49:31;3.60;;;0.73;;
81896;SDS011;71360;43.506;1.500;2024-02-26T12:51:57;3.50;;;0.60;;
81896;SDS011;71360;43.506;1.500;2024-02-26T12:54:29;4.32;;;0.70;;
81896;SDS011;71360;43.506;1.500;2024-02-26T12:57:00;3.92;;;0.70;;
81896;SDS011;71360;43.506;1.500;2024-02-26T13:02:36;3.65;;;0.60;;
81896;SDS011;71360;43.506;1.500;2024-02-26T13:05:03;3.10;;;0.60;;
81896;SDS011;71360;43.506;1.500;2024-02-26T13:07:32;2.60;;;0.60;;
81896;SDS011;71360;43.506;1.500;2024-02-26T13:14:20;4.78;;;0.80;;
81896;SDS011;71360;43.506;1.500;2024-02-26T13:16:54;3.13;;;0.70;;
81896;SDS011;71360;43.506;1.500;2024-02-26T13:19:20;3.53;;;0.70;;
81896;SDS011;71360;43.506;1.500;2024-02-26T13:21:46;3.63;;;0.70;;
81896;SDS011;71360;43.506;1.500;2024-02-26T13:24:12;2.43;;;0.60;;
81896;SDS011;71360;43.506;1.500;2024-02-26T13:26:38;3.78;;;0.70;;
81896;SDS011;71360;43.506;1.500;2024-02-26T13:29:04;3.07;;;0.80;;
81896;SDS011;71360;43.506;1.500;2024-02-26T13:31:30;3.75;;;0.70;;
81896;SDS011;71360;43.506;1.500;2024-02-26T13:33:56;3.50;;;0.65;;
81896;SDS011;71360;43.506;1.500;2024-02-26T13:36:34;2.60;;;0.68;;
81896;SDS011;71360;43.506;1.500;2024-02-26T13:38:59;3.70;;;0.60;;
81896;SDS011;71360;43.506;1.500;2024-02-26T13:41:26;4.35;;;0.70;;
81896;SDS011;71360;43.506;1.500;2024-02-26T13:43:52;3.63;;;0.60;;
81896;SDS011;71360;43.506;1.500;2024-02-26T13:46:17;3.00;;;0.70;;
81896;SDS011;71360;43.506;1.500;2024-02-26T13:48:44;2.67;;;0.60;;
81896;SDS011;71360;43.506;1.500;2024-02-26T13:54:31;3.20;;;0.60;;
81896;SDS011;71360;43.506;1.500;2024-02-26T13:56:57;3.30;;;0.60;;
81896;SDS011;71360;43.506;1.500;2024-02-26T13:59:23;2.53;;;0.55;;
81896;SDS011;71360;43.506;1.500;2024-02-26T14:01:48;3.07;;;0.80;;
81896;SDS011;71360;43.506;1.500;2024-02-26T14:04:16;3.03;;;0.80;;
81896;SDS011;71360;43.506;1.500;2024-02-26T14:06:41;2.55;;;0.60;;
81896;SDS011;71360;43.506;1.500;2024-02-26T14:09:07;3.97;;;0.70;;
81896;SDS011;71360;43.506;1.500;2024-02-26T14:11:33;4.10;;;0.85;;
81896;SDS011;71360;43.506;1.500;2024-02-26T14:13:58;3.80;;;0.70;;
81896;SDS011;71360;43.506;1.500;2024-02-26T14:26:29;3.42;;;0.60;;
81896;SDS011;71360;43.506;1.500;2024-02-26T14:28:54;3.00;;;0.60;;
81896;SDS011;71360;43.506;1.500;2024-02-26T14:31:21;3.00;;;0.70;;
81896;SDS011;71360;43.506;1.500;2024-02-26T14:33:46;3.58;;;0.63;;
81896;SDS011;71360;43.506;1.500;2024-02-26T14:36:13;2.53;;;0.60;;
81896;SDS011;71360;43.506;1.500;2024-02-26T14:38:38;3.00;;;0.70;;
81896;SDS011;71360;43.506;1.500;2024-02-26T14:41:04;2.78;;;0.60;;
81896;SDS011;71360;43.506;1.500;2024-02-26T14:43:30;2.20;;;0.60;;
81896;SDS011;71360;43.506;1.500;2024-02-26T14:45:57;2.70;;;0.57;;
81896;SDS011;71360;43.506;1.500;2024-02-26T14:48:24;1.95;;;0.50;;
81896;SDS011;71360;43.506;1.500;2024-02-26T14:50:49;3.77;;;0.60;;
81896;SDS011;71360;43.506;1.500;2024-02-26T14:53:16;2.55;;;0.60;;
81896;SDS011;71360;43.506;1.500;2024-02-26T14:55:42;3.47;;;0.50;;
81896;SDS011;71360;43.506;1.500;2024-02-26T14:58:08;2.60;;;0.50;;
81896;SDS011;71360;43.506;1.500;2024-02-26T15:00:36;2.70;;;0.50;;
81896;SDS011;71360;43.506;1.500;2024-02-26T15:03:01;2.40;;;0.50;;
81896;SDS011;71360;43.506;1.500;2024-02-26T15:05:27;2.08;;;0.50;;
81896;SDS011;71360;43.506;1.500;2024-02-26T15:07:52;2.30;;;0.60;;
81896;SDS011;71360;43.506;1.500;2024-02-26T15:10:18;2.57;;;0.57;;
81896;SDS011;71360;43.506;1.500;2024-02-26T15:12:44;3.00;;;0.75;;